Aiyion, Greece
Current Conditions -  °F | °C
As of 11:20 AM on Saturday 25 Oct 2014 (Local Time) from LGRX Reporting Station
Scattered Clouds Scattered Clouds  
Wind Chill: 64°   Ceiling: Unl
Heat Index: 64°   Visibility: 6mi
Dew Point: 48°   Wind: 3mph
Humidity: 56%   Direction: NA
Pressure: 29.85"   Gusts: NA
Location:  38.25°N, 22.08°E
Report Text: LGRX 250920Z VRB03KT 9999 SCT030 SCT090 18/09 Q1011
Loading
Personal Weather Stations






























Interactive Weather Map
Tropical Storm Tracking
New forecast layout! Learn more

10-Day Weather Forecast

Advertisements
Track Severe Weather on mobile